Time;durP1;ratioP1;P1;durP2;ratioP2;P2;SDS_P1;SDS_P2;PMS_P1;PMS_P2;Temp;Humidity;BMP_temperature;BMP_pressure;BME280_temperature;BME280_humidity;BME280_pressure;Samples;Min_cycle;Max_cycle;Signal;HPM_P1;HPM_P2
2022/01/23 00:01:55;;;;;;;13.98;4.75;;;7.50;99.90;;;;;;5014341;28;20065;-73
2022/01/23 00:04:21;;;;;;;14.07;4.50;;;7.50;99.90;;;;;;5019415;28;20049;-72
2022/01/23 00:06:48;;;;;;;11.50;4.15;;;7.50;99.90;;;;;;4998719;28;21475;-72
2022/01/23 00:09:17;;;;;;;14.50;4.88;;;7.50;99.90;;;;;;5027813;28;20098;-72
2022/01/23 00:11:50;;;;;;;12.15;4.80;;;7.50;99.90;;;;;;4999013;28;20046;-72
2022/01/23 00:17:20;;;;;;;8.32;3.45;;;7.70;99.90;;;;;;5021744;28;20049;-72
2022/01/23 00:19:51;;;;;;;9.57;3.42;;;7.50;99.90;;;;;;4998022;28;20046;-72
2022/01/23 00:22:19;;;;;;;11.30;2.95;;;7.50;99.90;;;;;;5000012;28;20042;-72
2022/01/23 00:30:28;;;;;;;8.57;2.80;;;7.50;99.90;;;;;;5015206;28;20054;-72
2022/01/23 00:33:00;;;;;;;8.30;3.10;;;8.00;99.90;;;;;;5016153;28;20080;-72
2022/01/23 00:35:27;;;;;;;11.50;3.08;;;7.50;99.90;;;;;;5008677;28;20521;-72
2022/01/23 00:37:54;;;;;;;8.02;3.30;;;7.50;99.90;;;;;;5018329;28;20520;-73
2022/01/23 00:40:20;;;;;;;7.50;3.85;;;7.50;99.90;;;;;;5018099;28;20052;-72
2022/01/23 00:42:46;;;;;;;9.07;3.50;;;8.10;99.90;;;;;;4995798;28;20176;-73
2022/01/23 00:47:58;;;;;;;;;;;8.40;99.90;;;;;;5011669;28;20497;-73
2022/01/23 00:50:24;;;;;;;11.60;3.72;;;7.50;99.90;;;;;;5006915;28;19921;-73
2022/01/23 00:52:50;;;;;;;14.48;4.63;;;7.40;99.90;;;;;;5010739;28;20121;-73
2022/01/23 00:55:16;;;;;;;9.05;3.65;;;7.60;99.90;;;;;;5007725;28;20496;-73
2022/01/23 00:57:41;;;;;;;10.00;4.28;;;7.40;99.90;;;;;;4994776;28;20577;-72
2022/01/23 01:00:08;;;;;;;11.13;4.13;;;7.40;99.90;;;;;;5020021;28;20091;-73
2022/01/23 01:02:34;;;;;;;14.48;4.38;;;7.40;99.90;;;;;;4996288;28;20410;-72
2022/01/23 01:05:00;;;;;;;10.95;4.50;;;7.40;99.90;;;;;;4998707;28;20107;-72
2022/01/23 01:07:26;;;;;;;12.38;4.35;;;7.40;99.90;;;;;;5016749;28;20053;-72
2022/01/23 01:09:54;;;;;;;14.52;4.43;;;7.40;99.90;;;;;;5013100;28;20049;-72
2022/01/23 01:12:24;;;;;;;13.07;4.72;;;7.40;99.90;;;;;;4994537;28;20065;-73
2022/01/23 01:33:56;;;;;;;14.25;4.50;;;7.40;99.90;;;;;;5009454;28;20465;-72
2022/01/23 01:38:46;;;;;;;12.70;4.30;;;7.80;99.90;;;;;;5012939;28;20380;-72
2022/01/23 01:41:12;;;;;;;12.13;4.68;;;7.40;99.90;;;;;;5013291;28;20454;-72
2022/01/23 01:43:39;;;;;;;13.18;4.90;;;7.30;99.90;;;;;;4995647;28;20050;-74
2022/01/23 01:46:04;;;;;;;10.13;4.07;;;7.30;99.90;;;;;;4993859;28;20088;-71
2022/01/23 01:48:30;;;;;;;11.77;4.30;;;7.40;99.90;;;;;;4980876;28;20049;-72
2022/01/23 01:50:58;;;;;;;14.63;4.57;;;7.30;99.90;;;;;;4995903;28;20516;-73
2022/01/23 01:53:24;;;;;;;10.85;4.70;;;7.40;99.90;;;;;;5010318;28;20038;-72
2022/01/23 01:55:55;;;;;;;11.10;4.63;;;7.30;99.90;;;;;;5007009;28;20045;-73
2022/01/23 01:58:44;;;;;;;12.23;4.30;;;7.30;99.90;;;;;;5010883;28;20116;-72
2022/01/23 02:09:31;;;;;;;10.18;4.22;;;7.30;99.90;;;;;;5018281;28;20453;-72
2022/01/23 02:17:57;;;;;;;9.80;4.35;;;8.10;99.90;;;;;;4996265;28;20061;-73
2022/01/23 02:55:34;;;;;;;9.70;4.97;;;7.20;99.90;;;;;;5017171;28;20073;-72
2022/01/23 02:58:04;;;;;;;9.60;4.20;;;7.20;99.90;;;;;;5002078;28;20050;-73
2022/01/23 03:00:46;;;;;;;8.82;4.88;;;7.20;99.90;;;;;;4997921;28;20049;-73
2022/01/23 03:03:14;;;;;;;7.75;4.43;;;7.20;99.90;;;;;;5002318;28;20577;-73
2022/01/23 03:05:40;;;;;;;16.25;5.22;;;7.20;99.90;;;;;;5011884;28;20041;-72
2022/01/23 03:08:26;;;;;;;9.25;4.90;;;7.20;99.90;;;;;;5023321;28;20541;-72
2022/01/23 03:11:06;;;;;;;11.13;5.20;;;7.90;99.90;;;;;;4996762;28;20191;-73
2022/01/23 03:24:34;;;;;;;9.68;4.75;;;7.80;99.90;;;;;;5023222;28;20060;-73
2022/01/23 03:27:15;;;;;;;11.38;5.57;;;7.20;99.90;;;;;;5002401;28;20053;-72
2022/01/23 03:32:23;;;;;;;12.30;5.00;;;7.20;99.90;;;;;;5014383;28;20030;-73
2022/01/23 03:34:49;;;;;;;13.18;5.00;;;7.20;99.90;;;;;;5012811;28;20061;-73
2022/01/23 03:37:15;;;;;;;14.55;5.28;;;8.00;99.90;;;;;;5017437;28;20046;-73
2022/01/23 03:39:40;;;;;;;9.52;4.78;;;7.20;99.90;;;;;;5008745;28;20482;-73
2022/01/23 03:42:07;;;;;;;12.23;5.45;;;7.40;99.90;;;;;;5012579;28;20486;-72
2022/01/23 03:44:36;;;;;;;13.52;4.85;;;7.20;99.90;;;;;;5026911;28;20141;-74
2022/01/23 03:50:00;;;;;;;10.50;5.15;;;7.20;99.90;;;;;;4979073;28;20053;-72
2022/01/23 03:52:26;;;;;;;16.80;5.45;;;7.10;99.90;;;;;;5011386;28;20049;-72
2022/01/23 03:54:54;;;;;;;12.07;5.30;;;7.50;99.90;;;;;;5011658;28;20464;-73
2022/01/23 03:57:19;;;;;;;15.35;5.30;;;7.70;99.90;;;;;;4979978;28;20048;-73
2022/01/23 03:59:45;;;;;;;10.65;5.15;;;7.10;99.90;;;;;;5012646;28;20046;-73
2022/01/23 04:02:11;;;;;;;10.38;4.97;;;7.10;99.90;;;;;;4996114;28;20049;-73
2022/01/23 04:04:40;;;;;;;13.02;5.70;;;7.50;99.90;;;;;;5011526;28;20054;-73
2022/01/23 04:07:20;;;;;;;11.57;5.57;;;7.20;99.90;;;;;;5012045;28;20112;-73
2022/01/23 04:09:47;;;;;;;12.75;5.70;;;7.20;99.90;;;;;;5011492;28;20399;-72
2022/01/23 04:12:36;;;;;;;13.30;5.50;;;7.20;99.90;;;;;;5011777;28;20053;-73
2022/01/23 04:15:13;;;;;;;11.77;5.47;;;7.90;99.90;;;;;;4995679;28;20080;-72
2022/01/23 05:04:16;;;;;;;11.63;4.57;;;7.30;99.90;;;;;;4986521;28;20050;-71
2022/01/23 05:06:45;;;;;;;11.55;4.47;;;8.10;99.90;;;;;;5008801;28;20046;-71
2022/01/23 05:09:11;;;;;;;11.38;5.20;;;7.30;99.90;;;;;;4962687;28;20060;-72
2022/01/23 05:11:44;;;;;;;10.07;4.47;;;7.30;99.90;;;;;;4994796;28;20102;-71
2022/01/23 05:14:10;;;;;;;11.52;4.68;;;7.30;99.90;;;;;;4995309;28;20065;-72
2022/01/23 05:16:36;;;;;;;10.95;4.50;;;7.60;99.90;;;;;;4994191;28;20052;-72
2022/01/23 05:19:04;;;;;;;10.43;4.72;;;7.30;99.90;;;;;;5010609;28;20061;-72
2022/01/23 05:24:17;;;;;;;8.73;4.03;;;7.20;99.90;;;;;;5010451;28;20512;-72
2022/01/23 05:26:45;;;;;;;9.45;4.57;;;7.30;99.90;;;;;;4994339;28;20050;-72
2022/01/23 05:29:12;;;;;;;9.35;4.28;;;7.30;99.90;;;;;;5010318;28;20057;-72
2022/01/23 05:31:38;;;;;;;11.82;4.35;;;7.20;99.90;;;;;;4994381;28;20052;-72
2022/01/23 05:34:04;;;;;;;10.77;3.90;;;7.20;99.90;;;;;;4993539;28;20486;-72
2022/01/23 05:36:30;;;;;;;13.18;5.25;;;7.20;99.90;;;;;;4994256;28;20038;-72
2022/01/23 05:38:56;;;;;;;10.07;4.63;;;7.20;99.90;;;;;;4993508;28;20044;-72
2022/01/23 05:41:21;;;;;;;12.90;4.70;;;7.20;99.90;;;;;;5010727;28;20045;-72
2022/01/23 05:43:47;;;;;;;8.68;4.70;;;7.80;99.90;;;;;;5010094;28;20050;-72
2022/01/23 05:46:31;;;;;;;12.95;4.82;;;7.10;99.90;;;;;;4994378;28;20129;-72
2022/01/23 05:48:57;;;;;;;8.18;4.40;;;7.10;99.90;;;;;;4993671;28;20291;-72
2022/01/23 05:51:23;;;;;;;9.88;4.38;;;7.10;99.90;;;;;;4961545;28;20049;-72
2022/01/23 05:53:49;;;;;;;9.82;4.57;;;7.10;99.90;;;;;;4994298;28;20052;-72
2022/01/23 05:56:16;;;;;;;12.40;4.65;;;7.10;99.90;;;;;;4994166;28;20395;-72
2022/01/23 05:58:42;;;;;;;9.35;4.55;;;7.00;99.90;;;;;;4993622;28;20268;-72
2022/01/23 06:01:08;;;;;;;9.43;4.35;;;7.00;99.90;;;;;;4993375;28;20080;-73
2022/01/23 06:03:34;;;;;;;9.90;5.20;;;7.00;99.90;;;;;;5015224;28;20077;-71
2022/01/23 06:06:00;;;;;;;13.82;4.80;;;7.00;99.90;;;;;;4994235;28;20042;-72
2022/01/23 06:08:25;;;;;;;9.15;4.78;;;7.00;99.90;;;;;;4976860;28;20498;-72
2022/01/23 06:10:56;;;;;;;9.60;4.82;;;7.30;99.90;;;;;;4977022;28;20057;-72
2022/01/23 06:13:24;;;;;;;10.68;4.88;;;7.00;99.90;;;;;;4978149;28;20410;-72
2022/01/23 06:15:51;;;;;;;10.48;5.10;;;6.90;99.90;;;;;;5010539;28;20103;-72
2022/01/23 06:18:17;;;;;;;10.10;5.00;;;6.90;99.90;;;;;;4993868;28;20049;-72
2022/01/23 06:20:43;;;;;;;11.73;5.40;;;6.80;99.90;;;;;;4992142;28;20128;-72
2022/01/23 06:23:09;;;;;;;11.68;5.55;;;7.20;99.90;;;;;;4993705;28;20137;-72
2022/01/23 06:25:36;;;;;;;11.48;5.68;;;6.80;99.90;;;;;;5009757;28;20117;-72
2022/01/23 06:28:07;;;;;;;10.20;5.13;;;6.90;99.90;;;;;;4993937;28;20046;-72
2022/01/23 06:30:33;;;;;;;10.95;4.75;;;6.90;99.90;;;;;;5009832;28;20390;-73
2022/01/23 06:33:00;;;;;;;11.88;4.85;;;6.90;99.90;;;;;;5009799;28;20042;-72
2022/01/23 06:35:26;;;;;;;11.15;5.50;;;7.60;99.90;;;;;;4981771;28;20057;-72
2022/01/23 06:37:52;;;;;;;9.73;5.18;;;6.90;99.90;;;;;;5013237;28;20100;-72
2022/01/23 06:40:18;;;;;;;17.52;5.82;;;6.90;99.90;;;;;;5013510;28;20038;-72
2022/01/23 06:42:44;;;;;;;16.65;5.68;;;6.90;99.90;;;;;;4996632;28;20045;-72
2022/01/23 06:45:09;;;;;;;10.35;5.50;;;6.80;99.90;;;;;;5010690;28;20124;-72
2022/01/23 06:47:35;;;;;;;12.15;5.32;;;6.80;99.90;;;;;;4996752;28;20449;-72
2022/01/23 06:50:02;;;;;;;13.23;5.40;;;7.00;99.90;;;;;;5013160;28;20064;-73
2022/01/23 06:52:28;;;;;;;10.35;5.40;;;6.80;99.90;;;;;;5028232;28;20124;-72
2022/01/23 06:54:53;;;;;;;13.80;6.30;;;6.70;99.90;;;;;;4997579;28;20133;-72
2022/01/23 06:57:19;;;;;;;14.02;5.70;;;6.80;99.90;;;;;;4997562;28;20438;-72
2022/01/23 06:59:45;;;;;;;12.77;5.82;;;6.70;99.90;;;;;;4997217;28;20046;-72
2022/01/23 07:02:10;;;;;;;9.40;5.05;;;6.70;99.90;;;;;;5012434;28;20045;-72
2022/01/23 07:04:36;;;;;;;10.13;5.22;;;7.40;99.90;;;;;;4996704;28;20057;-72
2022/01/23 07:07:02;;;;;;;11.88;5.80;;;6.70;99.90;;;;;;5013382;28;20053;-72
2022/01/23 07:09:28;;;;;;;11.48;5.97;;;7.50;99.90;;;;;;4997183;28;20053;-72
2022/01/23 07:11:54;;;;;;;11.43;5.80;;;6.60;99.90;;;;;;4979940;28;20042;-73
2022/01/23 07:14:20;;;;;;;11.60;6.10;;;6.60;99.90;;;;;;5012230;28;20091;-72
2022/01/23 07:16:46;;;;;;;13.23;5.80;;;7.40;99.90;;;;;;4996911;28;20046;-72
2022/01/23 07:19:12;;;;;;;13.48;6.60;;;6.90;99.90;;;;;;4996829;28;20050;-72
2022/01/23 07:21:38;;;;;;;12.77;5.75;;;6.60;99.90;;;;;;4980163;28;20046;-72
2022/01/23 07:24:04;;;;;;;12.02;5.60;;;6.60;99.90;;;;;;5012280;28;20057;-73
2022/01/23 07:26:31;;;;;;;14.52;6.30;;;6.60;99.90;;;;;;4996754;28;20054;-72
2022/01/23 07:29:00;;;;;;;12.00;5.65;;;6.60;99.90;;;;;;4995947;28;20046;-72
2022/01/23 07:31:56;;;;;;;15.63;6.30;;;6.60;99.90;;;;;;4995001;28;20065;-72
2022/01/23 07:34:14;;;;;;;11.38;5.45;;;7.30;99.90;;;;;;4997315;28;20512;-73
2022/01/23 07:36:40;;;;;;;17.00;6.05;;;6.60;99.90;;;;;;5012842;28;20077;-72
2022/01/23 07:39:08;;;;;;;18.42;6.70;;;6.60;99.90;;;;;;4996636;28;20049;-72
2022/01/23 07:41:34;;;;;;;14.00;6.47;;;6.70;99.90;;;;;;5012943;28;20057;-72
2022/01/23 07:44:00;;;;;;;14.55;6.68;;;7.50;99.90;;;;;;4995263;28;20375;-72
2022/01/23 07:46:26;;;;;;;14.77;6.57;;;6.80;99.90;;;;;;4996711;28;20050;-72
2022/01/23 07:48:51;;;;;;;13.20;6.25;;;7.50;99.90;;;;;;4974558;28;20491;-72
2022/01/23 07:51:17;;;;;;;16.90;7.13;;;7.20;99.90;;;;;;4995867;28;20067;-72
2022/01/23 07:53:43;;;;;;;14.82;6.70;;;6.90;99.90;;;;;;4996383;28;20050;-72
2022/01/23 07:56:09;;;;;;;14.43;6.30;;;6.90;99.90;;;;;;4980160;28;20054;-72
2022/01/23 07:58:34;;;;;;;13.30;6.00;;;6.90;99.90;;;;;;4980439;28;20125;-72
2022/01/23 08:01:00;;;;;;;12.63;6.35;;;6.90;99.90;;;;;;4996381;28;20053;-72
2022/01/23 08:03:26;;;;;;;11.25;5.90;;;6.90;99.90;;;;;;4962931;28;20053;-74
2022/01/23 08:05:52;;;;;;;12.90;6.28;;;7.00;99.90;;;;;;5020176;28;20076;-72
2022/01/23 08:08:17;;;;;;;17.35;6.43;;;7.10;99.90;;;;;;4998187;28;20057;-72
2022/01/23 08:10:43;;;;;;;13.02;5.55;;;7.80;99.90;;;;;;4996059;28;20050;-72
2022/01/23 08:13:09;;;;;;;14.20;6.63;;;7.10;99.90;;;;;;4979078;28;20038;-72
2022/01/23 08:15:35;;;;;;;13.48;6.43;;;7.10;99.90;;;;;;5012539;28;20121;-72
2022/01/23 08:18:05;;;;;;;18.40;7.18;;;7.70;99.90;;;;;;5011826;28;20037;-71
2022/01/23 08:20:33;;;;;;;16.95;6.85;;;7.10;99.90;;;;;;4995841;28;20077;-72
2022/01/23 08:23:03;;;;;;;15.98;7.45;;;8.00;99.90;;;;;;4979510;28;20406;-72
2022/01/23 08:25:30;;;;;;;15.48;6.82;;;6.40;99.90;;;;;;5010993;28;20058;-72
2022/01/23 08:27:57;;;;;;;16.27;7.30;;;7.50;99.90;;;;;;5013000;28;20053;-72
2022/01/23 08:30:24;;;;;;;17.67;7.28;;;7.20;99.90;;;;;;5011455;28;20099;-72
2022/01/23 08:32:50;;;;;;;13.52;7.25;;;7.30;99.90;;;;;;4979611;28;20058;-72
2022/01/23 08:35:16;;;;;;;16.83;7.50;;;7.30;99.90;;;;;;5011903;28;20530;-71
2022/01/23 08:37:42;;;;;;;13.38;6.90;;;7.80;99.90;;;;;;4979513;28;20136;-72
2022/01/23 08:40:19;;;;;;;14.93;7.55;;;8.10;99.90;;;;;;4994992;28;20089;-72
2022/01/23 08:42:45;;;;;;;15.25;6.88;;;7.40;99.90;;;;;;4996496;28;20050;-72
2022/01/23 08:45:10;;;;;;;13.63;6.53;;;7.50;99.90;;;;;;4994991;28;20322;-72
2022/01/23 08:47:36;;;;;;;12.50;6.60;;;7.60;99.90;;;;;;4962212;28;20080;-72
2022/01/23 08:50:03;;;;;;;11.85;6.32;;;7.60;99.90;;;;;;4993432;28;20487;-72
2022/01/23 08:52:29;;;;;;;13.00;6.35;;;7.70;99.90;;;;;;4991293;28;20045;-71
2022/01/23 08:54:57;;;;;;;12.23;6.20;;;7.70;99.90;;;;;;5007653;28;20037;-71
2022/01/23 08:57:24;;;;;;;11.90;6.78;;;7.80;99.90;;;;;;5010594;28;20057;-72
2022/01/23 08:59:50;;;;;;;7.93;4.82;;;7.90;99.90;;;;;;5011724;28;20038;-72
2022/01/23 09:02:17;;;;;;;9.77;4.75;;;8.70;99.90;;;;;;4976616;28;20123;-72
2022/01/23 09:04:44;;;;;;;10.32;4.43;;;7.90;99.90;;;;;;4996987;28;20056;-72
2022/01/23 09:07:12;;;;;;;9.57;4.60;;;8.00;99.90;;;;;;4984736;28;20057;-72
2022/01/23 09:09:39;;;;;;;7.28;4.07;;;8.00;99.90;;;;;;4995706;28;20395;-72
2022/01/23 09:14:51;;;;;;;8.32;4.07;;;8.00;99.90;;;;;;5011575;28;20128;-72
2022/01/23 09:17:17;;;;;;;6.82;3.88;;;8.00;99.90;;;;;;4995720;28;20410;-72
2022/01/23 09:19:46;;;;;;;6.38;3.50;;;8.70;99.90;;;;;;4994624;28;20054;-72
2022/01/23 09:22:12;;;;;;;6.78;3.78;;;8.10;99.90;;;;;;4994826;28;20049;-72
2022/01/23 09:24:38;;;;;;;7.53;4.28;;;8.10;99.90;;;;;;5013073;28;20076;-72
2022/01/23 09:27:07;;;;;;;8.55;3.80;;;8.10;99.90;;;;;;5010286;28;20486;-72
2022/01/23 09:29:37;;;;;;;7.43;3.75;;;8.10;99.90;;;;;;4993894;28;20057;-73
2022/01/23 09:32:12;;;;;;;6.57;3.30;;;8.20;99.90;;;;;;4990132;28;20494;-73
2022/01/23 09:34:41;;;;;;;7.90;3.60;;;8.20;99.90;;;;;;5008707;28;20050;-73
2022/01/23 09:37:10;;;;;;;7.82;3.40;;;8.20;99.90;;;;;;5006977;28;20081;-72
2022/01/23 09:39:38;;;;;;;7.20;3.13;;;8.20;99.90;;;;;;4990312;28;20046;-72
2022/01/23 09:42:06;;;;;;;5.28;3.13;;;8.30;99.90;;;;;;5022594;28;20046;-72
2022/01/23 09:44:43;;;;;;;5.78;2.90;;;8.30;99.90;;;;;;5008465;28;20057;-75
2022/01/23 09:47:14;;;;;;;5.38;2.70;;;8.20;99.90;;;;;;5007195;28;20064;-74
2022/01/23 09:49:41;;;;;;;5.30;2.40;;;8.30;99.90;;;;;;5007441;28;20049;-78
2022/01/23 09:52:09;;;;;;;6.47;2.70;;;8.30;99.90;;;;;;5008220;28;20046;-70
2022/01/23 09:54:38;;;;;;;5.50;2.60;;;8.30;99.90;;;;;;5011319;28;20049;-76
2022/01/23 09:57:06;;;;;;;4.22;2.28;;;8.30;99.90;;;;;;4996019;28;20050;-73
2022/01/23 09:59:32;;;;;;;4.57;2.17;;;8.30;99.90;;;;;;5026963;28;20049;-73
2022/01/23 10:01:58;;;;;;;4.40;2.05;;;8.30;99.90;;;;;;5011653;28;20046;-76
2022/01/23 10:04:31;;;;;;;3.83;1.63;;;8.30;99.90;;;;;;4995787;28;20124;-74
2022/01/23 10:06:57;;;;;;;4.20;1.95;;;8.30;99.90;;;;;;5020228;28;20088;-72
2022/01/23 10:09:26;;;;;;;2.80;1.65;;;8.40;99.90;;;;;;5014542;28;20057;-77
2022/01/23 10:11:52;;;;;;;3.97;1.60;;;8.40;99.90;;;;;;5015290;28;20133;-75
2022/01/23 10:14:23;;;;;;;2.55;1.63;;;8.30;99.90;;;;;;4982970;28;20061;-77
2022/01/23 10:16:50;;;;;;;2.90;1.55;;;8.30;99.90;;;;;;5014056;28;20053;-77
2022/01/23 10:19:17;;;;;;;3.15;1.35;;;8.40;99.90;;;;;;5014836;28;20057;-74
2022/01/23 10:21:44;;;;;;;1.88;1.20;;;8.50;99.90;;;;;;5023686;28;20497;-75
2022/01/23 10:24:12;;;;;;;3.58;1.15;;;8.40;99.90;;;;;;5008915;28;20390;-77
2022/01/23 10:26:53;;;;;;;2.42;1.10;;;8.40;99.90;;;;;;5014813;28;20060;-76
2022/01/23 10:29:21;;;;;;;3.47;1.30;;;8.50;99.90;;;;;;5013457;28;20053;-76
2022/01/23 10:32:18;;;;;;;2.80;1.33;;;8.50;99.90;;;;;;4997522;28;20050;-76
2022/01/23 10:34:52;;;;;;;1.67;1.13;;;8.50;99.90;;;;;;4997435;28;20056;-76
2022/01/23 10:37:27;;;;;;;5.72;1.60;;;8.60;99.90;;;;;;5010660;28;20133;-77
2022/01/23 10:39:53;;;;;;;2.17;1.25;;;8.60;99.90;;;;;;5009157;28;20159;-77
2022/01/23 10:48:00;;;;;;;2.30;1.10;;;8.80;99.90;;;;;;5010364;28;20056;-76
2022/01/23 10:50:27;;;;;;;1.00;0.90;;;8.90;99.90;;;;;;4978024;28;20065;-76
2022/01/23 10:52:59;;;;;;;1.38;1.00;;;8.90;99.90;;;;;;4994469;28;20053;-76
2022/01/23 10:55:34;;;;;;;5.38;1.10;;;8.90;99.90;;;;;;5009940;28;20061;-76
2022/01/23 10:58:03;;;;;;;1.95;1.15;;;8.90;99.90;;;;;;5009671;28;20044;-76
2022/01/23 11:00:47;;;;;;;1.42;0.60;;;8.80;99.90;;;;;;5010136;28;20041;-76
2022/01/23 11:03:22;;;;;;;3.03;0.88;;;8.80;99.90;;;;;;4977228;28;20038;-76
2022/01/23 11:05:49;;;;;;;1.77;0.60;;;8.80;99.90;;;;;;5009916;28;20045;-76
2022/01/23 11:08:26;;;;;;;0.60;0.60;;;9.10;99.90;;;;;;5025595;28;20064;-76
2022/01/23 11:11:04;;;;;;;1.38;0.40;;;8.70;99.90;;;;;;5010147;28;20042;-76
2022/01/23 11:19:23;;;;;;;1.98;0.40;;;8.80;99.90;;;;;;5009128;28;20054;-75
2022/01/23 11:21:51;;;;;;;1.83;0.50;;;8.80;99.90;;;;;;5011873;28;20038;-75
2022/01/23 11:24:17;;;;;;;0.57;0.30;;;8.70;99.90;;;;;;4985568;28;20108;-79
2022/01/23 11:26:43;;;;;;;1.30;0.30;;;8.20;99.90;;;;;;5017358;28;20062;-79
2022/01/23 11:29:14;;;;;;;0.65;0.40;;;8.70;99.90;;;;;;5007994;28;20097;-78
2022/01/23 11:31:43;;;;;;;1.20;0.40;;;8.60;99.90;;;;;;5007114;28;20399;-76
2022/01/23 11:34:11;;;;;;;0.75;0.60;;;8.60;99.90;;;;;;5018382;28;20399;-77
2022/01/23 11:36:37;;;;;;;1.45;0.65;;;8.50;99.90;;;;;;5013727;28;20051;-78
2022/01/23 11:39:17;;;;;;;0.90;0.68;;;8.40;99.90;;;;;;4992393;28;20046;-77
2022/01/23 11:50:49;;;;;;;0.98;0.70;;;8.40;99.90;;;;;;5008566;28;20058;-77
2022/01/23 11:59:22;;;;;;;1.15;1.05;;;8.30;99.90;;;;;;5016778;28;20049;-79
2022/01/23 12:02:11;;;;;;;2.33;1.02;;;8.30;99.90;;;;;;5008354;28;20058;-78
2022/01/23 12:04:41;;;;;;;1.55;0.70;;;8.20;99.90;;;;;;5007495;28;20391;-77
2022/01/23 12:07:11;;;;;;;1.65;0.80;;;8.20;99.90;;;;;;5007790;28;20052;-77
2022/01/23 12:09:38;;;;;;;0.70;0.70;;;8.20;99.90;;;;;;4991674;28;20081;-77
2022/01/23 12:12:33;;;;;;;1.13;0.60;;;8.10;99.90;;;;;;5023560;28;20096;-78
2022/01/23 12:18:25;;;;;;;1.10;0.80;;;8.10;99.90;;;;;;5007211;28;20050;-78
2022/01/23 12:20:52;;;;;;;1.17;0.73;;;8.10;99.90;;;;;;4991176;28;20045;-78
2022/01/23 12:23:19;;;;;;;0.65;0.65;;;8.10;99.90;;;;;;4991058;28;20081;-77
2022/01/23 12:25:47;;;;;;;3.10;1.10;;;8.50;99.90;;;;;;4966431;28;1133211;-76
2022/01/23 12:28:21;;;;;;;1.55;1.10;;;8.10;99.90;;;;;;5008461;28;20522;-74
2022/01/23 12:30:52;;;;;;;1.77;1.00;;;8.10;99.90;;;;;;4991730;28;20049;-79
2022/01/23 12:33:26;;;;;;;1.35;0.95;;;8.10;99.90;;;;;;5008001;28;20108;-76
2022/01/23 12:35:55;;;;;;;0.73;0.63;;;8.10;99.90;;;;;;5008228;28;20042;-75
2022/01/23 12:38:29;;;;;;;2.30;0.70;;;8.00;99.90;;;;;;5008172;28;20104;-78
2022/01/23 12:40:55;;;;;;;1.35;0.70;;;8.00;99.90;;;;;;5010920;28;20125;-76
2022/01/23 12:43:24;;;;;;;1.05;0.60;;;8.00;99.90;;;;;;4995462;28;20140;-74
2022/01/23 12:45:58;;;;;;;1.88;0.73;;;8.00;99.90;;;;;;5011360;28;20038;-79
2022/01/23 12:48:28;;;;;;;1.98;0.75;;;8.00;99.90;;;;;;5007074;28;20052;-73
2022/01/23 12:51:05;;;;;;;1.05;0.90;;;8.00;99.90;;;;;;5023945;28;20125;-73
2022/01/23 12:53:43;;;;;;;1.45;0.95;;;8.00;99.90;;;;;;4991963;28;20446;-73
2022/01/23 12:56:17;;;;;;;1.05;0.75;;;8.00;99.90;;;;;;5007572;28;20467;-73
2022/01/23 12:58:50;;;;;;;2.63;1.35;;;8.00;99.90;;;;;;5007709;28;20049;-73
2022/01/23 13:01:20;;;;;;;1.45;0.80;;;8.00;99.90;;;;;;5008007;28;20038;-73
2022/01/23 13:03:52;;;;;;;0.73;0.60;;;8.10;99.90;;;;;;5008112;28;20050;-73
2022/01/23 13:06:27;;;;;;;0.55;0.50;;;8.10;99.90;;;;;;5006798;28;20133;-74
2022/01/23 13:09:12;;;;;;;0.80;0.70;;;8.10;99.90;;;;;;4994559;28;20046;-74
2022/01/23 13:12:27;;;;;;;1.00;0.60;;;8.10;99.90;;;;;;5017137;28;20044;-73
2022/01/23 13:15:10;;;;;;;0.82;0.60;;;8.20;99.90;;;;;;5006326;28;20359;-74
2022/01/23 13:29:54;;;;;;;1.77;1.67;;;8.10;99.90;;;;;;5009102;28;20046;-73
2022/01/23 13:32:19;;;;;;;2.00;1.48;;;8.10;99.90;;;;;;5010553;28;20141;-73
2022/01/23 13:35:05;;;;;;;2.65;1.35;;;8.20;99.90;;;;;;5012876;28;20100;-73
2022/01/23 13:37:34;;;;;;;2.72;1.70;;;8.10;99.90;;;;;;5006607;28;20053;-73
2022/01/23 13:40:07;;;;;;;2.40;2.00;;;8.10;99.90;;;;;;5006492;28;20049;-74
2022/01/23 13:54:04;;;;;;;3.72;2.03;;;8.10;99.90;;;;;;5007042;28;20058;-74
2022/01/23 13:59:53;;;;;;;8.50;4.13;;;8.10;99.90;;;;;;5022746;28;20045;-75
2022/01/23 14:02:20;;;;;;;6.18;4.07;;;8.10;99.90;;;;;;5006566;28;20066;-75
2022/01/23 14:04:51;;;;;;;3.45;1.70;;;8.10;99.90;;;;;;5008714;28;20038;-74
2022/01/23 14:07:19;;;;;;;3.25;1.80;;;8.20;99.90;;;;;;4991332;28;20376;-74
2022/01/23 14:09:45;;;;;;;2.78;1.40;;;8.10;99.90;;;;;;4992615;28;20064;-74
2022/01/23 14:12:14;;;;;;;1.70;1.40;;;8.10;99.90;;;;;;5008515;28;20502;-74
2022/01/23 14:15:03;;;;;;;2.55;1.38;;;8.10;99.90;;;;;;4991082;28;20044;-74
2022/01/23 14:17:32;;;;;;;1.83;1.30;;;8.10;99.90;;;;;;5007426;28;20515;-74
2022/01/23 14:20:16;;;;;;;2.50;1.20;;;8.10;99.90;;;;;;5009177;28;20117;-74
2022/01/23 14:22:45;;;;;;;3.03;1.20;;;8.10;99.90;;;;;;5007626;28;20375;-74
2022/01/23 14:25:26;;;;;;;2.72;1.38;;;8.10;99.90;;;;;;4992349;28;20434;-74
2022/01/23 14:28:12;;;;;;;1.65;1.25;;;8.10;99.90;;;;;;4992272;28;20089;-74
2022/01/23 14:30:47;;;;;;;2.40;1.52;;;8.10;99.90;;;;;;5024882;28;20100;-74
2022/01/23 14:33:21;;;;;;;1.73;1.30;;;8.10;99.90;;;;;;5008380;28;20046;-74
2022/01/23 14:35:47;;;;;;;1.90;1.50;;;8.10;99.90;;;;;;5009044;28;20044;-74
2022/01/23 14:38:20;;;;;;;3.05;1.55;;;8.10;99.90;;;;;;4991994;28;20034;-73
2022/01/23 14:41:09;;;;;;;2.60;1.65;;;8.00;99.90;;;;;;4992128;28;20056;-73
2022/01/23 14:43:39;;;;;;;3.38;1.70;;;8.00;99.90;;;;;;4992169;28;20050;-74
2022/01/23 14:46:06;;;;;;;3.03;2.00;;;8.20;99.90;;;;;;5008823;28;20041;-74
2022/01/23 14:48:39;;;;;;;3.28;2.05;;;8.60;99.90;;;;;;4991792;28;20073;-74
2022/01/23 14:51:05;;;;;;;5.88;2.60;;;7.90;99.90;;;;;;4991600;28;20108;-74
2022/01/23 14:53:35;;;;;;;3.35;2.00;;;7.90;99.90;;;;;;5008624;28;20128;-74
2022/01/23 14:56:04;;;;;;;3.45;2.10;;;7.90;99.90;;;;;;4993455;28;20511;-74
2022/01/23 14:58:32;;;;;;;3.17;2.10;;;8.10;99.90;;;;;;5011641;28;20057;-74
2022/01/23 15:00:58;;;;;;;2.38;1.77;;;7.80;99.90;;;;;;5011840;28;20106;-74
2022/01/23 15:03:27;;;;;;;2.15;1.70;;;7.80;99.90;;;;;;4979479;28;20049;-74
2022/01/23 15:05:53;;;;;;;2.47;1.67;;;7.80;99.90;;;;;;4995255;28;20773;-74
2022/01/23 15:08:24;;;;;;;3.58;2.22;;;7.80;99.90;;;;;;5011184;28;20049;-74
2022/01/23 15:10:53;;;;;;;4.65;2.03;;;7.70;99.90;;;;;;4995975;28;20061;-74
2022/01/23 15:13:22;;;;;;;4.97;2.00;;;7.80;99.90;;;;;;5012232;28;20046;-73
2022/01/23 15:15:52;;;;;;;3.25;1.90;;;7.70;99.90;;;;;;5011609;28;20486;-73
2022/01/23 15:18:19;;;;;;;2.67;2.00;;;7.70;99.90;;;;;;4994934;28;20099;-75
2022/01/23 15:20:45;;;;;;;3.33;2.10;;;7.70;99.90;;;;;;5011029;28;20046;-74
2022/01/23 15:23:12;;;;;;;3.80;1.98;;;7.70;99.90;;;;;;4993691;28;20041;-74
2022/01/23 15:25:38;;;;;;;4.05;2.10;;;7.70;99.90;;;;;;4994990;28;20133;-74
2022/01/23 15:28:05;;;;;;;4.90;2.20;;;7.70;99.90;;;;;;5009895;28;20053;-74
2022/01/23 15:30:32;;;;;;;3.63;2.40;;;7.60;99.90;;;;;;5011378;28;20064;-73
2022/01/23 15:32:59;;;;;;;4.43;2.60;;;7.70;99.90;;;;;;4993299;28;20479;-74
2022/01/23 15:35:26;;;;;;;2.72;2.25;;;7.60;99.90;;;;;;4995179;28;20042;-74
2022/01/23 15:37:53;;;;;;;4.47;3.10;;;7.90;99.90;;;;;;4993408;28;20057;-75
2022/01/23 15:40:20;;;;;;;5.55;2.70;;;7.60;99.90;;;;;;5010871;28;20149;-74
2022/01/23 15:42:49;;;;;;;3.58;2.70;;;7.60;99.90;;;;;;5011110;28;20077;-74
2022/01/23 15:45:15;;;;;;;4.35;2.67;;;7.60;99.90;;;;;;5044026;28;20037;-74
2022/01/23 15:47:41;;;;;;;7.00;3.35;;;7.60;99.90;;;;;;5018845;28;20046;-74
2022/01/23 15:50:09;;;;;;;8.25;5.18;;;8.00;99.90;;;;;;5019297;28;20048;-73
2022/01/23 15:52:35;;;;;;;8.35;5.47;;;7.50;99.90;;;;;;5011588;28;20116;-74
2022/01/23 15:55:01;;;;;;;6.43;4.55;;;7.50;99.90;;;;;;4987718;28;20062;-74
2022/01/23 15:57:26;;;;;;;8.73;4.15;;;7.50;99.90;;;;;;5002208;28;20073;-74
2022/01/23 15:59:52;;;;;;;6.55;3.78;;;7.50;99.90;;;;;;4983208;28;20045;-74
2022/01/23 16:02:18;;;;;;;7.65;3.65;;;7.50;99.90;;;;;;4994358;28;20081;-74
2022/01/23 16:04:44;;;;;;;6.30;3.65;;;7.60;99.90;;;;;;4994600;28;20038;-74
2022/01/23 16:07:16;;;;;;;4.53;2.97;;;7.40;99.90;;;;;;4993067;28;20199;-74
2022/01/23 16:09:48;;;;;;;5.00;2.70;;;7.40;99.90;;;;;;5009635;28;20542;-74
2022/01/23 16:12:15;;;;;;;5.07;2.50;;;7.40;99.90;;;;;;4994223;28;20265;-73
2022/01/23 16:14:41;;;;;;;3.67;2.33;;;7.40;99.90;;;;;;4993747;28;20235;-74
2022/01/23 16:17:08;;;;;;;4.90;2.63;;;7.40;99.90;;;;;;5009976;28;20045;-74
2022/01/23 16:19:35;;;;;;;4.43;3.13;;;7.40;99.90;;;;;;4993954;28;20045;-74
2022/01/23 16:22:01;;;;;;;4.82;3.30;;;7.40;99.90;;;;;;5010494;28;20124;-74
2022/01/23 16:24:27;;;;;;;4.85;3.03;;;7.40;99.90;;;;;;4977847;28;20050;-73
2022/01/23 16:26:54;;;;;;;2.90;2.30;;;7.40;99.90;;;;;;5009848;28;20054;-73
2022/01/23 16:29:24;;;;;;;3.47;2.38;;;7.40;99.90;;;;;;4992672;28;20096;-74
2022/01/23 16:31:51;;;;;;;4.95;2.38;;;7.40;99.90;;;;;;4993676;28;20501;-74